Hjaltland — VSTY8 — position and weather

sailwx.info

Track history (hours):
 
Tides and Currents Weather Stations Pressure Air Temp Water Temp Dewpoint Dewpoint Depression Visibility Wind Speed Wind Dir Waves Ship Positions

Hjaltland

Operator: NorthLink Orkey & Shetland Ferries Ltd

Last reported at 2019-Jul-16 10:01 UTC. Time now 2019-Jul-16 10:27 UTC.
Position N 57°09' W 002°05'.

Type: Ship. MMSI: 235450000.

Date/timePositionNaut miles runAvg speedWind from/ knotsBaromVisibWave heightAir tempDewpointWater temp
2019-Jul-16 10:01N 57°09' W 002°05'0 0.0
2019-Jul-16 09:28N 57°09' W 002°05'0 0.0
2019-Jul-16 08:58N 57°09' W 002°05'0 0.0
2019-Jul-16 08:28N 57°09' W 002°05'0 0.0
2019-Jul-16 07:58N 57°09' W 002°05'0 0.0
2019-Jul-16 07:28N 57°09' W 002°05'0 0.0
2019-Jul-16 07:00N 57°09' W 002°05'0 0.0
2019-Jul-16 06:28N 57°09' W 002°05'0 0.0
2019-Jul-16 05:58N 57°09' W 002°05'1 1.5
2019-Jul-16 05:30N 57°08' W 002°04'612.3
2019-Jul-16 05:00N 57°13' W 001°56'1315.4
2019-Jul-16 04:11N 57°23' W 001°43'315.4
2019-Jul-16 04:00N 57°26' W 001°41'1019.2
2019-Jul-16 03:30N 57°35' W 001°41'8421.3
2019-Jul-15 23:33N 58°55' W 002°37'322.4
2019-Jul-15 23:24N 58°58' W 002°39'819.9
2019-Jul-15 23:00N 59°01' W 002°53'3 5.8
2019-Jul-15 22:30N 58°60' W 002°58'0 0.0
2019-Jul-15 22:00N 58°60' W 002°58'2 4.8
2019-Jul-15 21:30N 59°01' W 002°54'815.6
2019-Jul-15 21:00N 59°00' W 002°39'7 0.3
2019-Jul-15 00:14N 59°04' W 002°27'312.0
2019-Jul-15 00:00N 59°02' W 002°31'510.9
2019-Jul-14 23:30N 59°00' W 002°41'713.5
2019-Jul-14 23:01N 59°01' W 002°54'2 2.1
2019-Jul-14 21:48N 58°60' W 002°58'311.0
2019-Jul-14 21:30N 59°01' W 002°52'1020.5
2019-Jul-14 21:00N 58°55' W 002°36'8123.0
2019-Jul-14 17:29N 57°39' W 001°42'1224.0
2019-Jul-14 17:00N 57°28' W 001°42'1224.2
2019-Jul-14 16:31N 57°17' W 001°52'1121.1
2019-Jul-14 16:00N 57°09' W 002°04'1 1.6
2019-Jul-14 15:30N 57°09' W 002°05'0 0.0
2019-Jul-14 15:00N 57°09' W 002°05'0 0.0
2019-Jul-14 14:30N 57°09' W 002°05'0 0.0
2019-Jul-14 14:00N 57°09' W 002°05'0 0.0
2019-Jul-14 13:30N 57°09' W 002°05'0 0.0
2019-Jul-14 13:00N 57°09' W 002°05'0 0.0
2019-Jul-14 12:30N 57°09' W 002°05'0 0.0
2019-Jul-14 12:00N 57°09' W 002°05'0 0.0
2019-Jul-14 11:30N 57°09' W 002°05'0 0.0
2019-Jul-14 11:00N 57°09' W 002°05'0 0.0
2019-Jul-14 10:30N 57°09' W 002°05'0 0.0
2019-Jul-14 10:00N 57°09' W 002°05'0 0.0
2019-Jul-14 09:30N 57°09' W 002°05'0 0.0
2019-Jul-14 09:00N 57°09' W 002°05'0 0.0
2019-Jul-14 08:30N 57°09' W 002°05'0 0.0
2019-Jul-14 08:00N 57°09' W 002°05'0 0.0
2019-Jul-14 07:30N 57°09' W 002°05'0 0.0
2019-Jul-14 06:57N 57°09' W 002°05'0 0.0
2019-Jul-14 06:30N 57°09' W 002°05'0 0.0
2019-Jul-14 06:00N 57°09' W 002°05'1 1.4
2019-Jul-14 05:30N 57°08' W 002°04'611.8
2019-Jul-14 05:00N 57°13' W 001°57'815.5
2019-Jul-14 04:30N 57°19' W 001°49'815.9
2019-Jul-14 04:00N 57°26' W 001°41'713.4
2019-Jul-14 03:30N 57°32' W 001°38'3712.3
2019-Jul-14 00:33N 58°09' W 001°36'113.3
2019-Jul-14 00:29N 58°10' W 001°36'1916.6
2019-Jul-13 23:22N 58°28' W 001°32'1619.0
2019-Jul-13 22:30N 58°44' W 001°28'1119.0
2019-Jul-13 21:57N 58°55' W 001°25'1219.2
2019-Jul-13 21:20N 59°06' W 001°21'1419.3
2019-Jul-13 20:37N 59°20' W 001°17'419.4
2019-Jul-13 20:24N 59°24' W 001°15'819.3
2019-Jul-13 20:00N 59°32' W 001°14'1019.2
2019-Jul-13 19:30N 59°41' W 001°11'1018.6
2019-Jul-13 18:59N 59°51' W 001°08'125 5.8
2019-Jul-12 21:35N 57°47' W 001°36'112.0
2019-Jul-12 21:27N 57°46' W 001°36'511.8
2019-Jul-12 21:00N 57°41' W 001°33'611.3
2019-Jul-12 20:30N 57°35' W 001°34'611.5
2019-Jul-12 20:00N 57°29' W 001°36'612.0
2019-Jul-12 19:30N 57°24' W 001°42'612.2
2019-Jul-12 19:00N 57°19' W 001°48'612.4
2019-Jul-12 18:30N 57°14' W 001°54'714.2
2019-Jul-12 18:00N 57°09' W 002°03'1 2.3
2019-Jul-12 17:30N 57°09' W 002°05'0 0.0
2019-Jul-12 17:00N 57°09' W 002°05'0 0.0
2019-Jul-12 16:30N 57°09' W 002°05'0 0.0
2019-Jul-12 16:00N 57°09' W 002°05'0 0.0
2019-Jul-12 15:30N 57°09' W 002°05'0 0.0
2019-Jul-12 15:00N 57°09' W 002°05'0 0.0
2019-Jul-12 14:30N 57°09' W 002°05'0 0.0
2019-Jul-12 14:00N 57°09' W 002°05'0 0.0
2019-Jul-12 13:30N 57°09' W 002°05'0 0.0
2019-Jul-12 13:00N 57°09' W 002°05'0 0.0
2019-Jul-12 12:30N 57°09' W 002°05'0 0.0
2019-Jul-12 12:00N 57°09' W 002°05'0 0.0
2019-Jul-12 11:30N 57°09' W 002°05'0 0.0
2019-Jul-12 11:00N 57°09' W 002°05'0 0.0
2019-Jul-12 10:30N 57°09' W 002°05'0 0.0
2019-Jul-12 10:00N 57°09' W 002°05'0 0.0
2019-Jul-12 09:30N 57°09' W 002°05'0 0.0
2019-Jul-12 09:00N 57°09' W 002°05'0 0.0
2019-Jul-12 08:30N 57°09' W 002°05'0 0.0
2019-Jul-12 08:00N 57°09' W 002°05'0 0.0
2019-Jul-12 07:30N 57°09' W 002°05'0 0.0
2019-Jul-12 07:00N 57°09' W 002°05'0 0.0
2019-Jul-12 06:30N 57°09' W 002°05'0 0.0
2019-Jul-12 06:00N 57°09' W 002°05'1 1.3
2019-Jul-12 05:30N 57°08' W 002°04'611.6
2019-Jul-12 05:00N 57°13' W 001°57'8814.7
2019-Jul-11 23:03N 58°39' W 001°29'4518.6
2019-Jul-11 20:39N 59°23' W 001°17'318.8
2019-Jul-11 20:30N 59°26' W 001°17'918.8
2019-Jul-11 20:00N 59°35' W 001°13'2918.4
2019-Jul-11 18:27N 60°04' W 001°09'138 6.6
2019-Jul-10 21:32N 57°47' W 001°37'112.7
2019-Jul-10 21:29N 57°46' W 001°37'612.5
2019-Jul-10 21:00N 57°40' W 001°37'612.1
2019-Jul-10 20:31N 57°34' W 001°37'611.6
2019-Jul-10 20:01N 57°28' W 001°38'611.4
2019-Jul-10 19:31N 57°23' W 001°42'612.0
2019-Jul-10 19:00N 57°18' W 001°48'611.9
2019-Jul-10 18:31N 57°13' W 001°55'713.0
2019-Jul-10 18:00N 57°09' W 002°03'1 2.0
2019-Jul-10 17:27N 57°09' W 002°05'0 0.0
2019-Jul-10 16:57N 57°09' W 002°05'0 0.0
2019-Jul-10 16:27N 57°09' W 002°05'0 0.0
2019-Jul-10 15:57N 57°09' W 002°05'0 0.0
2019-Jul-10 15:27N 57°09' W 002°05'0 0.0
2019-Jul-10 14:57N 57°09' W 002°05'0 0.0
2019-Jul-10 14:27N 57°09' W 002°05'0 0.0
2019-Jul-10 13:57N 57°09' W 002°05'0 0.0
2019-Jul-10 13:27N 57°09' W 002°05'0 0.0
2019-Jul-10 12:57N 57°09' W 002°05'0 0.0
2019-Jul-10 12:27N 57°09' W 002°05'0 0.0
2019-Jul-10 11:57N 57°09' W 002°05'0 0.0
2019-Jul-10 11:27N 57°09' W 002°05'0 0.0
2019-Jul-10 10:57N 57°09' W 002°05'0 0.0
2019-Jul-10 10:25N 57°09' W 002°05'0 0.0
2019-Jul-10 09:57N 57°09' W 002°05'0 0.0
2019-Jul-10 09:27N 57°09' W 002°05'0 0.0
2019-Jul-10 08:57N 57°09' W 002°05'0 0.0
2019-Jul-10 08:27N 57°09' W 002°05'0 0.0
2019-Jul-10 07:58N 57°09' W 002°05'0 0.0
2019-Jul-10 07:28N 57°09' W 002°05'0 0.0
2019-Jul-10 06:58N 57°09' W 002°05'0 0.0
2019-Jul-10 06:28N 57°09' W 002°05'0 0.0
2019-Jul-10 05:58N 57°09' W 002°05'1 1.2
2019-Jul-10 05:31N 57°08' W 002°04'611.7
2019-Jul-10 05:00N 57°12' W 001°56'1214.8
2019-Jul-10 04:10N 57°23' W 001°44'313.3
2019-Jul-10 03:58N 57°25' W 001°41'613.7
2019-Jul-10 03:30N 57°31' W 001°39'47 1.7
2019-Jul-08 23:35N 58°18' W 001°32'3513.7
2019-Jul-08 21:02N 57°43' W 001°36'213.6
2019-Jul-08 20:54N 57°41' W 001°36'513.1
2019-Jul-08 20:30N 57°36' W 001°37'612.6
2019-Jul-08 20:00N 57°30' W 001°37'612.3
2019-Jul-08 19:30N 57°24' W 001°42'612.5
2019-Jul-08 19:00N 57°19' W 001°49'612.1
2019-Jul-08 18:30N 57°14' W 001°55'612.9
2019-Jul-08 18:00N 57°09' W 002°03'1 2.7
2019-Jul-08 17:28N 57°09' W 002°05'0 0.0
2019-Jul-08 16:58N 57°09' W 002°05'0 0.0
2019-Jul-08 16:28N 57°09' W 002°05'0 0.0
2019-Jul-08 16:00N 57°09' W 002°05'0 0.0
2019-Jul-08 15:30N 57°09' W 002°05'0 0.0
2019-Jul-08 15:00N 57°09' W 002°05'0 0.0
2019-Jul-08 14:30N 57°09' W 002°05'0 0.0
2019-Jul-08 14:00N 57°09' W 002°05'0 0.0
2019-Jul-08 13:30N 57°09' W 002°05'0 0.0
2019-Jul-08 13:00N 57°09' W 002°05'0 0.0
2019-Jul-08 12:30N 57°09' W 002°05'0 0.0
2019-Jul-08 12:00N 57°09' W 002°05'0 0.0
2019-Jul-08 11:30N 57°09' W 002°05'0 0.0
2019-Jul-08 11:00N 57°09' W 002°05'0 0.0
2019-Jul-08 10:30N 57°09' W 002°05'0 0.0
2019-Jul-08 10:00N 57°09' W 002°05'0 0.0
2019-Jul-08 09:30N 57°09' W 002°05'0 0.0
2019-Jul-08 09:00N 57°09' W 002°05'0 0.0
2019-Jul-08 08:30N 57°09' W 002°05'0 0.0
2019-Jul-08 08:00N 57°09' W 002°05'0 0.0
2019-Jul-08 07:30N 57°09' W 002°05'0 0.0
2019-Jul-08 07:00N 57°09' W 002°05'0 0.0
2019-Jul-08 06:30N 57°09' W 002°05'0 0.0
2019-Jul-08 06:00N 57°09' W 002°05'0 0.9
2019-Jul-08 05:30N 57°09' W 002°05'4 7.0
2019-Jul-08 05:00N 57°11' W 001°59'814.8
2019-Jul-08 04:30N 57°17' W 001°51'1013.7
2019-Jul-08 03:48N 57°25' W 001°42'413.5
2019-Jul-08 03:29N 57°29' W 001°39'713.9
2019-Jul-08 03:00N 57°35' W 001°37'11316.6
2019-Jul-07 20:12N 59°28' W 001°15'44 2.2
2019-Jul-07 00:12N 59°04' W 002°27'312.5
2019-Jul-07 00:00N 59°02' W 002°31'611.6
2019-Jul-06 23:30N 59°00' W 002°41'816.1
2019-Jul-06 23:00N 59°01' W 002°57'1 1.4
2019-Jul-06 21:57N 58°60' W 002°58'511.9
2019-Jul-06 21:30N 59°00' W 002°48'1121.1
2019-Jul-06 21:00N 58°52' W 002°35'7323.3
2019-Jul-06 17:52N 57°44' W 001°44'822.8
2019-Jul-06 17:30N 57°36' W 001°41'1121.8
2019-Jul-06 17:00N 57°25' W 001°43'1122.2
2019-Jul-06 16:30N 57°16' W 001°53'918.5
2019-Jul-06 16:00N 57°09' W 002°04'1 1.2
2019-Jul-06 15:25N 57°09' W 002°05'0 0.0
2019-Jul-06 14:55N 57°09' W 002°05'0 0.0
2019-Jul-06 14:28N 57°09' W 002°05'0 0.0
2019-Jul-06 13:58N 57°09' W 002°05'0 0.0
2019-Jul-06 13:28N 57°09' W 002°05'0 0.0
2019-Jul-06 12:58N 57°09' W 002°05'0 0.0
2019-Jul-06 12:28N 57°09' W 002°05'0 0.0
2019-Jul-06 11:58N 57°09' W 002°05'0 0.0
2019-Jul-06 11:28N 57°09' W 002°05'0 0.0
2019-Jul-06 10:58N 57°09' W 002°05'0 0.0
2019-Jul-06 10:28N 57°09' W 002°05'  
Track history (hours):
 
Tides and Currents Weather Stations Pressure Air Temp Water Temp Dewpoint Dewpoint Depression Visibility Wind Speed Wind Dir Waves Ship Positions

Hjaltland

Operator: NorthLink Orkey & Shetland Ferries Ltd

Last reported at 2019-Jul-16 10:01 UTC. Time now 2019-Jul-16 10:27 UTC.
Position N 57°09' W 002°05'.

Type: Ship. MMSI: 235450000.

Date/timePositionNaut miles runAvg speedWind from/ knotsBaromVisibWave heightAir tempDewpointWater temp
2019-Jul-16 10:01N 57°09' W 002°05'0 0.0
2019-Jul-16 09:28N 57°09' W 002°05'0 0.0
2019-Jul-16 08:58N 57°09' W 002°05'0 0.0
2019-Jul-16 08:28N 57°09' W 002°05'0 0.0
2019-Jul-16 07:58N 57°09' W 002°05'0 0.0
2019-Jul-16 07:28N 57°09' W 002°05'0 0.0
2019-Jul-16 07:00N 57°09' W 002°05'0 0.0
2019-Jul-16 06:28N 57°09' W 002°05'0 0.0
2019-Jul-16 05:58N 57°09' W 002°05'1 1.5
2019-Jul-16 05:30N 57°08' W 002°04'612.3
2019-Jul-16 05:00N 57°13' W 001°56'1315.4
2019-Jul-16 04:11N 57°23' W 001°43'315.4
2019-Jul-16 04:00N 57°26' W 001°41'1019.2
2019-Jul-16 03:30N 57°35' W 001°41'8421.3
2019-Jul-15 23:33N 58°55' W 002°37'322.4
2019-Jul-15 23:24N 58°58' W 002°39'819.9
2019-Jul-15 23:00N 59°01' W 002°53'3 5.8
2019-Jul-15 22:30N 58°60' W 002°58'0 0.0
2019-Jul-15 22:00N 58°60' W 002°58'2 4.8
2019-Jul-15 21:30N 59°01' W 002°54'815.6
2019-Jul-15 21:00N 59°00' W 002°39'7 0.3
2019-Jul-15 00:14N 59°04' W 002°27'312.0
2019-Jul-15 00:00N 59°02' W 002°31'510.9
2019-Jul-14 23:30N 59°00' W 002°41'713.5
2019-Jul-14 23:01N 59°01' W 002°54'2 2.1
2019-Jul-14 21:48N 58°60' W 002°58'311.0
2019-Jul-14 21:30N 59°01' W 002°52'1020.5
2019-Jul-14 21:00N 58°55' W 002°36'8123.0
2019-Jul-14 17:29N 57°39' W 001°42'1224.0
2019-Jul-14 17:00N 57°28' W 001°42'1224.2
2019-Jul-14 16:31N 57°17' W 001°52'1121.1
2019-Jul-14 16:00N 57°09' W 002°04'1 1.6
2019-Jul-14 15:30N 57°09' W 002°05'0 0.0
2019-Jul-14 15:00N 57°09' W 002°05'0 0.0
2019-Jul-14 14:30N 57°09' W 002°05'0 0.0
2019-Jul-14 14:00N 57°09' W 002°05'0 0.0
2019-Jul-14 13:30N 57°09' W 002°05'0 0.0
2019-Jul-14 13:00N 57°09' W 002°05'0 0.0
2019-Jul-14 12:30N 57°09' W 002°05'0 0.0
2019-Jul-14 12:00N 57°09' W 002°05'0 0.0
2019-Jul-14 11:30N 57°09' W 002°05'0 0.0
2019-Jul-14 11:00N 57°09' W 002°05'0 0.0
2019-Jul-14 10:30N 57°09' W 002°05'0 0.0
2019-Jul-14 10:00N 57°09' W 002°05'0 0.0
2019-Jul-14 09:30N 57°09' W 002°05'0 0.0
2019-Jul-14 09:00N 57°09' W 002°05'0 0.0
2019-Jul-14 08:30N 57°09' W 002°05'0 0.0
2019-Jul-14 08:00N 57°09' W 002°05'0 0.0
2019-Jul-14 07:30N 57°09' W 002°05'0 0.0
2019-Jul-14 06:57N 57°09' W 002°05'0 0.0
2019-Jul-14 06:30N 57°09' W 002°05'0 0.0
2019-Jul-14 06:00N 57°09' W 002°05'1 1.4
2019-Jul-14 05:30N 57°08' W 002°04'611.8
2019-Jul-14 05:00N 57°13' W 001°57'815.5
2019-Jul-14 04:30N 57°19' W 001°49'815.9
2019-Jul-14 04:00N 57°26' W 001°41'713.4
2019-Jul-14 03:30N 57°32' W 001°38'3712.3
2019-Jul-14 00:33N 58°09' W 001°36'113.3
2019-Jul-14 00:29N 58°10' W 001°36'1916.6
2019-Jul-13 23:22N 58°28' W 001°32'1619.0
2019-Jul-13 22:30N 58°44' W 001°28'1119.0
2019-Jul-13 21:57N 58°55' W 001°25'1219.2
2019-Jul-13 21:20N 59°06' W 001°21'1419.3
2019-Jul-13 20:37N 59°20' W 001°17'419.4
2019-Jul-13 20:24N 59°24' W 001°15'819.3
2019-Jul-13 20:00N 59°32' W 001°14'1019.2
2019-Jul-13 19:30N 59°41' W 001°11'1018.6
2019-Jul-13 18:59N 59°51' W 001°08'125 5.8
2019-Jul-12 21:35N 57°47' W 001°36'112.0
2019-Jul-12 21:27N 57°46' W 001°36'511.8
2019-Jul-12 21:00N 57°41' W 001°33'611.3
2019-Jul-12 20:30N 57°35' W 001°34'611.5
2019-Jul-12 20:00N 57°29' W 001°36'612.0
2019-Jul-12 19:30N 57°24' W 001°42'612.2
2019-Jul-12 19:00N 57°19' W 001°48'612.4
2019-Jul-12 18:30N 57°14' W 001°54'714.2
2019-Jul-12 18:00N 57°09' W 002°03'1 2.3
2019-Jul-12 17:30N 57°09' W 002°05'0 0.0
2019-Jul-12 17:00N 57°09' W 002°05'0 0.0
2019-Jul-12 16:30N 57°09' W 002°05'0 0.0
2019-Jul-12 16:00N 57°09' W 002°05'0 0.0
2019-Jul-12 15:30N 57°09' W 002°05'0 0.0
2019-Jul-12 15:00N 57°09' W 002°05'0 0.0
2019-Jul-12 14:30N 57°09' W 002°05'0 0.0
2019-Jul-12 14:00N 57°09' W 002°05'0 0.0
2019-Jul-12 13:30N 57°09' W 002°05'0 0.0
2019-Jul-12 13:00N 57°09' W 002°05'0 0.0
2019-Jul-12 12:30N 57°09' W 002°05'0 0.0
2019-Jul-12 12:00N 57°09' W 002°05'0 0.0
2019-Jul-12 11:30N 57°09' W 002°05'0 0.0
2019-Jul-12 11:00N 57°09' W 002°05'0 0.0
2019-Jul-12 10:30N 57°09' W 002°05'0 0.0
2019-Jul-12 10:00N 57°09' W 002°05'0 0.0
2019-Jul-12 09:30N 57°09' W 002°05'0 0.0
2019-Jul-12 09:00N 57°09' W 002°05'0 0.0
2019-Jul-12 08:30N 57°09' W 002°05'0 0.0
2019-Jul-12 08:00N 57°09' W 002°05'0 0.0
2019-Jul-12 07:30N 57°09' W 002°05'0 0.0
2019-Jul-12 07:00N 57°09' W 002°05'0 0.0
2019-Jul-12 06:30N 57°09' W 002°05'0 0.0
2019-Jul-12 06:00N 57°09' W 002°05'1 1.3
2019-Jul-12 05:30N 57°08' W 002°04'611.6
2019-Jul-12 05:00N 57°13' W 001°57'8814.7
2019-Jul-11 23:03N 58°39' W 001°29'4518.6
2019-Jul-11 20:39N 59°23' W 001°17'318.8
2019-Jul-11 20:30N 59°26' W 001°17'918.8
2019-Jul-11 20:00N 59°35' W 001°13'2918.4
2019-Jul-11 18:27N 60°04' W 001°09'138 6.6
2019-Jul-10 21:32N 57°47' W 001°37'112.7
2019-Jul-10 21:29N 57°46' W 001°37'612.5
2019-Jul-10 21:00N 57°40' W 001°37'612.1
2019-Jul-10 20:31N 57°34' W 001°37'611.6
2019-Jul-10 20:01N 57°28' W 001°38'611.4
2019-Jul-10 19:31N 57°23' W 001°42'612.0
2019-Jul-10 19:00N 57°18' W 001°48'611.9
2019-Jul-10 18:31N 57°13' W 001°55'713.0
2019-Jul-10 18:00N 57°09' W 002°03'1 2.0
2019-Jul-10 17:27N 57°09' W 002°05'0 0.0
2019-Jul-10 16:57N 57°09' W 002°05'0 0.0
2019-Jul-10 16:27N 57°09' W 002°05'0 0.0
2019-Jul-10 15:57N 57°09' W 002°05'0 0.0
2019-Jul-10 15:27N 57°09' W 002°05'0 0.0
2019-Jul-10 14:57N 57°09' W 002°05'0 0.0
2019-Jul-10 14:27N 57°09' W 002°05'0 0.0
2019-Jul-10 13:57N 57°09' W 002°05'0 0.0
2019-Jul-10 13:27N 57°09' W 002°05'0 0.0
2019-Jul-10 12:57N 57°09' W 002°05'0 0.0
2019-Jul-10 12:27N 57°09' W 002°05'0 0.0
2019-Jul-10 11:57N 57°09' W 002°05'0 0.0
2019-Jul-10 11:27N 57°09' W 002°05'0 0.0
2019-Jul-10 10:57N 57°09' W 002°05'0 0.0
2019-Jul-10 10:25N 57°09' W 002°05'0 0.0
2019-Jul-10 09:57N 57°09' W 002°05'0 0.0
2019-Jul-10 09:27N 57°09' W 002°05'0 0.0
2019-Jul-10 08:57N 57°09' W 002°05'0 0.0
2019-Jul-10 08:27N 57°09' W 002°05'0 0.0
2019-Jul-10 07:58N 57°09' W 002°05'0 0.0
2019-Jul-10 07:28N 57°09' W 002°05'0 0.0
2019-Jul-10 06:58N 57°09' W 002°05'0 0.0
2019-Jul-10 06:28N 57°09' W 002°05'0 0.0
2019-Jul-10 05:58N 57°09' W 002°05'1 1.2
2019-Jul-10 05:31N 57°08' W 002°04'611.7
2019-Jul-10 05:00N 57°12' W 001°56'1214.8
2019-Jul-10 04:10N 57°23' W 001°44'313.3
2019-Jul-10 03:58N 57°25' W 001°41'613.7
2019-Jul-10 03:30N 57°31' W 001°39'47 1.7
2019-Jul-08 23:35N 58°18' W 001°32'3513.7
2019-Jul-08 21:02N 57°43' W 001°36'213.6
2019-Jul-08 20:54N 57°41' W 001°36'513.1
2019-Jul-08 20:30N 57°36' W 001°37'612.6
2019-Jul-08 20:00N 57°30' W 001°37'612.3
2019-Jul-08 19:30N 57°24' W 001°42'612.5
2019-Jul-08 19:00N 57°19' W 001°49'612.1
2019-Jul-08 18:30N 57°14' W 001°55'612.9
2019-Jul-08 18:00N 57°09' W 002°03'1 2.7
2019-Jul-08 17:28N 57°09' W 002°05'0 0.0
2019-Jul-08 16:58N 57°09' W 002°05'0 0.0
2019-Jul-08 16:28N 57°09' W 002°05'0 0.0
2019-Jul-08 16:00N 57°09' W 002°05'0 0.0
2019-Jul-08 15:30N 57°09' W 002°05'0 0.0
2019-Jul-08 15:00N 57°09' W 002°05'0 0.0
2019-Jul-08 14:30N 57°09' W 002°05'0 0.0
2019-Jul-08 14:00N 57°09' W 002°05'0 0.0
2019-Jul-08 13:30N 57°09' W 002°05'0 0.0
2019-Jul-08 13:00N 57°09' W 002°05'0 0.0
2019-Jul-08 12:30N 57°09' W 002°05'0 0.0
2019-Jul-08 12:00N 57°09' W 002°05'0 0.0
2019-Jul-08 11:30N 57°09' W 002°05'0 0.0
2019-Jul-08 11:00N 57°09' W 002°05'0 0.0
2019-Jul-08 10:30N 57°09' W 002°05'0 0.0
2019-Jul-08 10:00N 57°09' W 002°05'0 0.0
2019-Jul-08 09:30N 57°09' W 002°05'0 0.0
2019-Jul-08 09:00N 57°09' W 002°05'0 0.0
2019-Jul-08 08:30N 57°09' W 002°05'0 0.0
2019-Jul-08 08:00N 57°09' W 002°05'0 0.0
2019-Jul-08 07:30N 57°09' W 002°05'0 0.0
2019-Jul-08 07:00N 57°09' W 002°05'0 0.0
2019-Jul-08 06:30N 57°09' W 002°05'0 0.0
2019-Jul-08 06:00N 57°09' W 002°05'0 0.9
2019-Jul-08 05:30N 57°09' W 002°05'4 7.0
2019-Jul-08 05:00N 57°11' W 001°59'814.8
2019-Jul-08 04:30N 57°17' W 001°51'1013.7
2019-Jul-08 03:48N 57°25' W 001°42'413.5
2019-Jul-08 03:29N 57°29' W 001°39'713.9
2019-Jul-08 03:00N 57°35' W 001°37'11316.6
2019-Jul-07 20:12N 59°28' W 001°15'44 2.2
2019-Jul-07 00:12N 59°04' W 002°27'312.5
2019-Jul-07 00:00N 59°02' W 002°31'611.6
2019-Jul-06 23:30N 59°00' W 002°41'816.1
2019-Jul-06 23:00N 59°01' W 002°57'1 1.4
2019-Jul-06 21:57N 58°60' W 002°58'511.9
2019-Jul-06 21:30N 59°00' W 002°48'1121.1
2019-Jul-06 21:00N 58°52' W 002°35'7323.3
2019-Jul-06 17:52N 57°44' W 001°44'822.8
2019-Jul-06 17:30N 57°36' W 001°41'1121.8
2019-Jul-06 17:00N 57°25' W 001°43'1122.2
2019-Jul-06 16:30N 57°16' W 001°53'918.5
2019-Jul-06 16:00N 57°09' W 002°04'1 1.2
2019-Jul-06 15:25N 57°09' W 002°05'0 0.0
2019-Jul-06 14:55N 57°09' W 002°05'0 0.0
2019-Jul-06 14:28N 57°09' W 002°05'0 0.0
2019-Jul-06 13:58N 57°09' W 002°05'0 0.0
2019-Jul-06 13:28N 57°09' W 002°05'0 0.0
2019-Jul-06 12:58N 57°09' W 002°05'0 0.0
2019-Jul-06 12:28N 57°09' W 002°05'0 0.0
2019-Jul-06 11:58N 57°09' W 002°05'0 0.0
2019-Jul-06 11:28N 57°09' W 002°05'0 0.0
2019-Jul-06 10:58N 57°09' W 002°05'0 0.0
2019-Jul-06 10:28N 57°09' W 002°05'  

Dump ship's entire track history